Montauk, NY (11954)

6:15 AM EST on December 18, 2014 (GMT -0500)
KNYMONTA3 | Change Station
CLOSE
Current Station
Personal Weather Station
Location: Montauk School, NY
Elevation: 81 ft
Nearby Weather Stations

Elev 81 ft 41.04 °N, 71.96 °W | Updated 3 seconds ago

Overcast
Overcast
39.0 °F
Feels Like 35 °F
N
6.0
Wind Variable Wind from West
Gusts 29.0 mph

Today
High -- | Low -- °F
--% Chance of Precip.
Yesterday
High -- | Low -- °F
Precip. -- in
7:07 AM 4:21 PM
Waning Crescent, 15% visible
Pressure 29.82 in
Visibility 9.0 miles
Clouds Overcast 10000 ft
Windchill 35 °F
Dew Point 30 °F
Humidity 71%
Rainfall 0.00 in
Snow Depth Not available.
UV 0 out of 12
Pollen .10 out of 12
Air Quality Not available.
Flu Activity Not available.
METAR KGON 181056Z AUTO 29012G20KT 9SM OVC100 03/M01 A2982 RMK AO2 SLP098 T00331011

More Conditions Fewer Conditions

Pressure 29.82 in
Visibility 9.0 miles
Clouds Overcast 10000 ft
Windchill 35 °F
Dew Point 30 °F
Humidity 71%
Rainfall 0.00 in
Snow Depth Not available.
UV 0 out of 12
Pollen .10 out of 12
Air Quality Not available.
Flu Activity Not available.
METAR KGON 181056Z AUTO 29012G20KT 9SM OVC100 03/M01 A2982 RMK AO2 SLP098 T00331011

More Conditions Fewer Conditions

10-Day Weather Forecast

Almanac

Astronomy

Dec. 18, 2014 Rise Set
Actual Time
Civil Twilight
Nautical Twilight
Astronomical Twilight
Moon
Length of Visible Light
Length of Day
Tomorrow will be .
, % of the Moon is Illuminated

Today's Extremes

State Highs State Lows

Community

WunderPhotos

Upload Photos

1,778,917 photos uploaded!

WunderBlogs® & News

Nearby

Air Quality

  Air Quality AQ Index Pollutant
Not available.

Snow Depth

Station Depth Elevation

Earthquake Activity

City Distance Mag. Time & Date
Minimum magnitude displayed is 2.5.

Coastal Water Temperatures

Place Temperature

Nearby Weather Stations